createdAt,value
2017-11-16T00:00:39.251Z,98.70
2017-11-16T00:03:08.519Z,98.70
2017-11-16T00:05:37.794Z,98.70
2017-11-16T00:08:07.043Z,98.70
2017-11-16T00:10:36.388Z,98.70
2017-11-16T00:13:05.655Z,98.70
2017-11-16T00:15:35.034Z,98.50
2017-11-16T00:18:04.354Z,98.40
2017-11-16T00:20:34.365Z,98.60
2017-11-16T00:23:03.614Z,98.50
2017-11-16T00:25:32.874Z,98.50
2017-11-16T00:28:02.918Z,98.60
2017-11-16T00:30:32.295Z,98.50
2017-11-16T00:33:01.713Z,98.40
2017-11-16T00:35:31.000Z,98.40
2017-11-16T00:38:00.415Z,98.40
2017-11-16T00:40:29.683Z,98.30
2017-11-16T00:42:59.015Z,98.40
2017-11-16T00:45:29.062Z,98.50
2017-11-16T00:47:58.432Z,98.40
2017-11-16T00:50:27.739Z,98.50
2017-11-16T00:52:57.866Z,98.80
2017-11-16T00:55:27.990Z,98.40
2017-11-16T00:57:57.512Z,98.40
2017-11-16T01:00:26.803Z,98.40
2017-11-16T01:02:56.898Z,98.30
2017-11-16T01:05:26.658Z,98.30
2017-11-16T01:07:55.931Z,98.00
2017-11-16T01:10:26.259Z,98.30
2017-11-16T01:12:56.372Z,98.60
2017-11-16T01:15:26.392Z,98.50
2017-11-16T01:17:55.630Z,98.50
2017-11-16T01:20:24.887Z,98.60
2017-11-16T01:22:54.961Z,98.30
2017-11-16T01:25:24.201Z,98.30
2017-11-16T01:27:54.019Z,97.80
2017-11-16T01:30:23.415Z,97.50
2017-11-16T01:32:52.659Z,97.50
2017-11-16T01:35:21.937Z,97.80
2017-11-16T01:37:51.961Z,97.80
2017-11-16T01:40:21.339Z,97.80
2017-11-16T01:42:50.615Z,97.00
2017-11-16T01:45:19.864Z,96.80
2017-11-16T01:47:49.249Z,97.00
2017-11-16T01:50:18.547Z,97.40
2017-11-16T01:52:47.818Z,97.30
2017-11-16T01:55:17.070Z,97.30
2017-11-16T01:57:46.327Z,97.60
2017-11-16T02:00:15.588Z,97.50
2017-11-16T02:02:44.860Z,97.50
2017-11-16T02:05:14.893Z,97.10
2017-11-16T02:07:44.140Z,97.10
2017-11-16T02:10:13.398Z,97.00
2017-11-16T02:12:42.651Z,97.20
2017-11-16T02:15:11.899Z,97.60
2017-11-16T02:17:41.204Z,97.70
2017-11-16T02:20:10.586Z,97.90
2017-11-16T02:22:40.088Z,97.70
2017-11-16T02:25:10.204Z,97.60
2017-11-16T02:27:40.242Z,96.90
2017-11-16T02:30:09.520Z,96.90
2017-11-16T02:32:39.537Z,97.10
2017-11-16T02:35:08.838Z,97.00
2017-11-16T02:37:38.082Z,97.10
2017-11-16T02:40:07.336Z,96.60
2017-11-16T02:42:36.778Z,96.80
2017-11-16T02:45:06.055Z,96.80
2017-11-16T02:47:35.282Z,97.00
2017-11-16T02:50:04.525Z,96.90
2017-11-16T02:52:33.791Z,97.10
2017-11-16T02:55:03.155Z,97.10
2017-11-16T02:57:32.407Z,97.00
2017-11-16T03:00:01.659Z,97.10
2017-11-16T03:02:32.367Z,97.30
2017-11-16T03:05:01.656Z,97.30
2017-11-16T03:07:30.915Z,97.10
2017-11-16T03:10:00.287Z,97.10
2017-11-16T03:12:30.303Z,97.00
2017-11-16T03:14:59.571Z,97.00
2017-11-16T03:17:28.836Z,97.10
2017-11-16T03:19:58.086Z,97.40
2017-11-16T03:22:27.351Z,96.80
2017-11-16T03:24:56.724Z,96.80
2017-11-16T03:27:26.756Z,97.10
2017-11-16T03:29:56.055Z,97.10
2017-11-16T03:32:25.308Z,97.20
2017-11-16T03:34:54.585Z,97.10
2017-11-16T03:37:23.841Z,97.00
2017-11-16T03:39:53.888Z,97.10
2017-11-16T03:42:23.239Z,97.00
2017-11-16T03:44:52.694Z,97.10
2017-11-16T03:47:21.983Z,97.00
2017-11-16T03:49:51.242Z,96.90
2017-11-16T03:52:20.515Z,97.10
2017-11-16T03:54:49.769Z,97.40
2017-11-16T03:57:19.793Z,97.90
2017-11-16T03:59:49.187Z,97.90
2017-11-16T04:02:19.240Z,98.20
2017-11-16T04:04:49.318Z,98.20
2017-11-16T04:07:19.584Z,98.80
2017-11-16T04:09:48.839Z,98.80
2017-11-16T04:12:18.143Z,99.10
2017-11-16T04:14:47.403Z,99.40
2017-11-16T04:17:16.754Z,99.40
2017-11-16T04:19:46.882Z,99.90
2017-11-16T04:22:16.913Z,99.70
2017-11-16T04:24:46.292Z,99.70
2017-11-16T04:27:16.435Z,99.90
2017-11-16T04:29:45.927Z,99.80
2017-11-16T04:32:16.057Z,99.90
2017-11-16T04:34:46.065Z,99.80
2017-11-16T04:37:15.323Z,99.80
2017-11-16T04:39:44.566Z,99.60
2017-11-16T04:42:14.606Z,99.40
2017-11-16T04:44:44.051Z,99.30
2017-11-16T04:47:13.497Z,99.30
2017-11-16T04:49:42.748Z,99.10
2017-11-16T04:52:11.999Z,99.10
2017-11-16T04:54:41.392Z,99.10
2017-11-16T04:57:10.897Z,99.30
2017-11-16T04:59:40.939Z,99.90
2017-11-16T05:02:10.184Z,99.60
2017-11-16T05:04:39.447Z,99.50
2017-11-16T05:07:08.693Z,99.00
2017-11-16T05:09:37.940Z,99.00
2017-11-16T05:12:07.205Z,99.10
2017-11-16T05:14:36.544Z,99.30
2017-11-16T05:17:05.821Z,99.60
2017-11-16T05:19:35.048Z,99.40
2017-11-16T05:22:04.327Z,99.30
2017-11-16T05:24:34.463Z,99.20
2017-11-16T05:27:03.696Z,99.40
2017-11-16T05:29:32.943Z,99.60
2017-11-16T05:32:02.213Z,99.80
2017-11-16T05:34:32.343Z,99.90
2017-11-16T05:37:01.622Z,99.90
2017-11-16T05:39:30.876Z,99.90
2017-11-16T05:42:00.996Z,99.90
2017-11-16T05:44:30.251Z,99.90
2017-11-16T05:46:59.693Z,99.80
2017-11-16T05:49:28.926Z,99.80
2017-11-16T05:51:58.172Z,99.90
2017-11-16T05:54:27.451Z,99.90
2017-11-16T05:56:56.827Z,99.90
2017-11-16T05:59:26.273Z,99.90
2017-11-16T06:01:55.507Z,99.90
2017-11-16T06:04:24.904Z,99.90
2017-11-16T06:06:54.965Z,99.90
2017-11-16T06:09:24.251Z,99.90
2017-11-16T06:11:53.609Z,99.90
2017-11-16T06:14:22.903Z,99.70
2017-11-16T06:16:52.149Z,99.80
2017-11-16T06:19:21.430Z,99.70
2017-11-16T06:21:50.685Z,99.90
2017-11-16T06:48:38.356Z,99.90
2017-11-16T06:51:07.592Z,99.90
2017-11-16T06:53:36.928Z,99.80
2017-11-16T06:56:06.176Z,99.90
2017-11-16T06:58:35.424Z,99.90
2017-11-16T07:01:04.712Z,99.90
2017-11-16T07:03:33.964Z,99.90
2017-11-16T07:06:03.246Z,99.90
2017-11-16T07:08:32.513Z,99.90
2017-11-16T07:11:01.947Z,99.90
2017-11-16T07:13:31.267Z,99.90
2017-11-16T07:16:01.296Z,99.90
2017-11-16T07:18:30.698Z,99.90
2017-11-16T07:20:59.963Z,99.90
2017-11-16T07:23:29.496Z,99.90
2017-11-16T07:25:59.729Z,99.90
2017-11-16T07:28:28.939Z,99.90
2017-11-16T07:30:58.212Z,99.90
2017-11-16T07:33:28.235Z,99.90
2017-11-16T07:35:57.508Z,99.90
2017-11-16T07:38:26.922Z,99.90
2017-11-16T07:40:56.199Z,99.90
2017-11-16T07:43:25.464Z,99.90
2017-11-16T07:45:54.811Z,99.90
2017-11-16T07:48:24.356Z,99.90
2017-11-16T07:50:54.360Z,99.90
2017-11-16T07:53:23.634Z,99.90
2017-11-16T07:55:53.064Z,99.90
2017-11-16T07:58:22.323Z,99.90
2017-11-16T08:00:51.672Z,99.90
2017-11-16T08:03:21.707Z,99.90
2017-11-16T08:05:51.100Z,99.90
2017-11-16T08:08:21.116Z,99.90
2017-11-16T08:10:50.395Z,99.90
2017-11-16T08:13:19.832Z,99.90
2017-11-16T08:15:49.840Z,99.90
2017-11-16T08:18:19.090Z,99.90
2017-11-16T08:20:48.380Z,99.90
2017-11-16T08:23:17.831Z,99.90
2017-11-16T08:25:47.060Z,99.90
2017-11-16T08:28:16.964Z,99.90
2017-11-16T08:30:46.232Z,99.90
2017-11-16T08:33:15.680Z,99.90
2017-11-16T08:35:45.685Z,99.90
2017-11-16T08:38:14.955Z,99.90
2017-11-16T08:40:44.266Z,99.90
2017-11-16T08:43:13.535Z,99.90
2017-11-16T08:45:42.987Z,99.90
2017-11-16T08:48:13.129Z,99.90
2017-11-16T08:50:42.403Z,99.90
2017-11-16T08:53:12.426Z,99.60
2017-11-16T08:55:41.831Z,99.60
2017-11-16T08:58:11.972Z,99.60
2017-11-16T09:00:41.227Z,99.60
2017-11-16T09:03:10.751Z,99.80
2017-11-16T09:05:40.256Z,99.90
2017-11-16T09:08:09.572Z,99.90
2017-11-16T09:10:39.608Z,99.90
2017-11-16T09:13:08.991Z,99.90
2017-11-16T09:15:38.295Z,99.90
2017-11-16T09:18:09.204Z,99.90
2017-11-16T09:20:38.477Z,99.90
2017-11-16T09:23:07.751Z,99.90
2017-11-16T09:25:37.032Z,99.90
2017-11-16T09:28:06.284Z,99.90
2017-11-16T09:30:35.563Z,99.90
2017-11-16T09:33:05.040Z,99.90
2017-11-16T09:35:35.089Z,99.90
2017-11-16T09:38:04.351Z,99.90
2017-11-16T09:40:33.724Z,99.90
2017-11-16T09:43:03.057Z,99.90
2017-11-16T09:45:33.088Z,99.90
2017-11-16T09:48:02.483Z,99.90
2017-11-16T09:50:32.516Z,99.90
2017-11-16T09:53:01.783Z,99.90
2017-11-16T09:55:31.035Z,99.90
2017-11-16T09:58:00.287Z,99.90
2017-11-16T10:00:29.566Z,99.90
2017-11-16T10:02:58.917Z,99.70
2017-11-16T10:05:28.205Z,99.60
2017-11-16T10:07:58.224Z,99.40
2017-11-16T10:10:27.639Z,99.40
2017-11-16T10:12:57.635Z,99.30
2017-11-16T10:15:26.907Z,99.30
2017-11-16T10:17:56.333Z,99.30
2017-11-16T10:20:25.589Z,99.00
2017-11-16T10:22:55.224Z,99.00
2017-11-16T10:25:24.635Z,98.90
2017-11-16T10:27:53.998Z,98.90
2017-11-16T10:30:23.212Z,99.00
2017-11-16T10:32:52.488Z,99.20
2017-11-16T10:35:21.743Z,98.90
2017-11-16T10:37:51.006Z,98.80
2017-11-16T10:40:20.471Z,99.20
2017-11-16T10:42:50.607Z,98.80
2017-11-16T10:45:19.930Z,98.80
2017-11-16T10:47:49.182Z,98.80
2017-11-16T10:50:18.513Z,99.00
2017-11-16T10:52:49.420Z,98.70
2017-11-16T10:55:18.710Z,98.70
2017-11-16T10:57:47.956Z,98.50
2017-11-16T11:00:17.344Z,98.30
2017-11-16T11:02:47.385Z,97.90
2017-11-16T11:05:16.631Z,97.80
2017-11-16T11:07:45.923Z,97.80
2017-11-16T11:10:15.186Z,97.90
2017-11-16T11:12:45.288Z,98.20
2017-11-16T11:15:15.315Z,98.10
2017-11-16T11:17:44.580Z,98.10
2017-11-16T11:20:13.834Z,98.40
2017-11-16T11:22:43.315Z,98.80
2017-11-16T11:25:13.352Z,99.20
2017-11-16T11:27:42.604Z,99.20
2017-11-16T11:30:11.877Z,98.90
2017-11-16T11:32:41.121Z,98.50
2017-11-16T11:35:10.380Z,98.50
2017-11-16T11:37:39.631Z,98.80
2017-11-16T11:40:09.036Z,98.50
2017-11-16T11:42:39.083Z,98.70
2017-11-16T11:45:08.335Z,98.70
2017-11-16T11:47:37.620Z,98.60
2017-11-16T11:50:07.027Z,98.70
2017-11-16T11:52:36.287Z,98.80
2017-11-16T11:55:05.955Z,98.50
2017-11-16T11:57:35.211Z,98.80
2017-11-16T12:00:04.506Z,98.50
2017-11-16T12:02:33.807Z,98.30
2017-11-16T12:05:03.084Z,98.10
2017-11-16T12:07:33.091Z,98.20
2017-11-16T12:10:02.343Z,98.10
2017-11-16T12:12:31.599Z,98.30
2017-11-16T12:15:01.643Z,98.00
2017-11-16T12:17:31.220Z,98.00
2017-11-16T12:20:01.248Z,97.90
2017-11-16T12:22:30.533Z,97.90
2017-11-16T12:24:59.799Z,98.10
2017-11-16T12:27:29.055Z,97.80
2017-11-16T12:29:59.094Z,97.40
2017-11-16T12:32:28.356Z,97.40
2017-11-16T12:34:57.771Z,97.40
2017-11-16T12:37:27.892Z,97.90
2017-11-16T12:39:57.212Z,97.90
2017-11-16T12:42:27.239Z,98.40
2017-11-16T12:44:56.507Z,98.40
2017-11-16T12:47:26.031Z,98.80
2017-11-16T12:49:55.528Z,98.90
2017-11-16T12:52:24.753Z,99.10
2017-11-16T12:54:54.024Z,99.00
2017-11-16T12:57:24.056Z,99.10
2017-11-16T12:59:53.325Z,99.10
2017-11-16T13:02:22.768Z,99.00
2017-11-16T13:04:52.056Z,98.90
2017-11-16T13:07:22.087Z,98.60
2017-11-16T13:09:51.336Z,98.60
2017-11-16T13:12:20.626Z,98.50
2017-11-16T13:14:49.864Z,98.60
2017-11-16T13:17:19.247Z,98.60
2017-11-16T13:19:48.677Z,98.50
2017-11-16T13:22:19.003Z,98.50
2017-11-16T13:24:49.511Z,98.50
2017-11-16T13:27:18.833Z,98.40
2017-11-16T13:29:48.252Z,98.20
2017-11-16T13:32:17.511Z,98.10
2017-11-16T13:34:47.653Z,98.10
2017-11-16T13:37:16.903Z,98.30
2017-11-16T13:39:46.179Z,98.40
2017-11-16T13:42:15.436Z,98.50
2017-11-16T13:44:44.755Z,98.80
2017-11-16T13:47:14.793Z,99.10
2017-11-16T13:49:44.060Z,99.10
2017-11-16T13:52:13.328Z,99.10
2017-11-16T13:54:42.780Z,99.10
2017-11-16T13:57:12.071Z,98.70
2017-11-16T13:59:41.443Z,99.10
2017-11-16T14:02:10.896Z,98.90
2017-11-16T14:04:40.931Z,98.90
2017-11-16T14:07:10.208Z,98.90
2017-11-16T14:09:39.607Z,99.10
2017-11-16T14:12:08.976Z,99.30
2017-11-16T14:14:38.811Z,99.50
2017-11-16T14:17:08.133Z,99.40
2017-11-16T14:19:38.218Z,99.20
2017-11-16T14:22:07.499Z,99.20
2017-11-16T14:24:36.763Z,99.30
2017-11-16T14:27:06.040Z,99.30
2017-11-16T14:29:35.380Z,99.20
2017-11-16T14:32:04.752Z,99.50
2017-11-16T14:34:34.004Z,99.40
2017-11-16T14:37:03.531Z,99.50
2017-11-16T14:39:32.991Z,99.30
2017-11-16T14:42:02.255Z,99.40
2017-11-16T14:44:31.540Z,99.40
2017-11-16T14:47:00.816Z,99.30
2017-11-16T14:49:30.151Z,99.20
2017-11-16T14:51:59.408Z,99.60
2017-11-16T14:54:28.708Z,99.70
2017-11-16T14:56:58.000Z,99.60
2017-11-16T14:59:27.453Z,99.80
2017-11-16T15:01:56.712Z,99.90
2017-11-16T15:04:26.032Z,99.90
2017-11-16T15:06:55.413Z,99.90
2017-11-16T15:09:24.699Z,99.90
2017-11-16T15:11:54.766Z,99.90
2017-11-16T15:14:24.053Z,99.90
2017-11-16T15:16:53.425Z,99.90
2017-11-16T15:19:23.465Z,99.90
2017-11-16T15:21:52.704Z,99.90
2017-11-16T15:24:22.144Z,99.90
2017-11-16T15:26:52.196Z,99.90
2017-11-16T15:29:21.488Z,99.90
2017-11-16T15:31:50.776Z,99.90
2017-11-16T15:34:20.172Z,99.90
2017-11-16T15:36:50.197Z,99.90
2017-11-16T15:39:19.484Z,99.90
2017-11-16T15:41:48.728Z,99.90
2017-11-16T15:44:18.012Z,99.90
2017-11-16T15:46:47.451Z,99.90
2017-11-16T15:49:16.715Z,99.90
2017-11-16T15:51:45.969Z,99.90
2017-11-16T15:54:15.225Z,99.90
2017-11-16T15:56:44.707Z,99.90
2017-11-16T15:59:14.834Z,99.50
2017-11-16T16:01:44.145Z,99.50
2017-11-16T16:04:14.247Z,99.60
2017-11-16T16:06:43.568Z,99.50
2017-11-16T16:09:12.830Z,99.60
2017-11-16T16:11:42.189Z,99.40
2017-11-16T16:14:11.648Z,99.60
2017-11-16T16:16:41.768Z,99.20
2017-11-16T16:19:11.912Z,99.00
2017-11-16T16:21:41.316Z,99.00
2017-11-16T16:24:10.590Z,98.90
2017-11-16T16:26:39.851Z,99.10
2017-11-16T16:29:11.201Z,99.00
2017-11-16T16:31:40.704Z,99.30
2017-11-16T16:34:10.064Z,99.00
2017-11-16T16:36:39.434Z,98.90
2017-11-16T16:39:08.768Z,98.80
2017-11-16T16:41:38.207Z,98.90
2017-11-16T16:44:07.777Z,99.00
2017-11-16T16:46:37.033Z,99.20
2017-11-16T16:49:06.382Z,99.30
2017-11-16T16:51:36.485Z,99.60
2017-11-16T16:54:05.721Z,99.10
2017-11-16T16:56:34.994Z,99.00
2017-11-16T16:59:04.560Z,99.10
2017-11-16T17:01:33.852Z,99.20
2017-11-16T17:04:03.115Z,99.20
2017-11-16T17:06:32.644Z,99.20
2017-11-16T17:09:02.691Z,99.10
2017-11-16T17:11:31.991Z,98.70
2017-11-16T17:14:01.275Z,98.70
2017-11-16T17:16:30.773Z,99.10
2017-11-16T17:19:00.024Z,99.40
2017-11-16T17:21:29.297Z,99.50
2017-11-16T17:23:58.708Z,99.00
2017-11-16T17:26:28.006Z,99.00
2017-11-16T17:28:57.404Z,99.00
2017-11-16T17:31:26.708Z,98.50
2017-11-16T17:33:55.951Z,98.60
2017-11-16T17:36:25.210Z,98.90
2017-11-16T17:38:54.526Z,99.10
2017-11-16T17:41:24.000Z,99.30
2017-11-16T17:43:54.073Z,99.70
2017-11-16T17:46:24.176Z,99.70
2017-11-16T17:48:53.456Z,99.70
2017-11-16T17:51:22.827Z,99.60
2017-11-16T17:53:52.156Z,99.80
2017-11-16T17:56:22.976Z,99.90
2017-11-16T17:58:53.046Z,99.90
2017-11-16T18:01:22.283Z,99.90
2017-11-16T18:03:51.556Z,99.90
2017-11-16T18:06:20.846Z,99.90
2017-11-16T18:08:50.193Z,99.90
2017-11-16T18:11:19.599Z,99.90
2017-11-16T18:13:48.874Z,99.80
2017-11-16T18:16:18.243Z,99.90
2017-11-16T18:18:48.136Z,99.50
2017-11-16T18:21:17.395Z,99.60
2017-11-16T18:23:46.826Z,99.90
2017-11-16T18:26:16.889Z,99.90
2017-11-16T18:28:46.261Z,99.90
2017-11-16T18:31:16.259Z,99.90
2017-11-16T18:33:45.547Z,99.90
2017-11-16T18:36:14.825Z,99.90
2017-11-16T18:38:44.188Z,99.90
2017-11-16T18:41:13.448Z,99.90
2017-11-16T18:43:42.788Z,99.90
2017-11-16T18:46:13.583Z,99.90
2017-11-16T18:48:42.849Z,99.90
2017-11-16T18:51:12.199Z,99.90
2017-11-16T18:53:41.503Z,99.90
2017-11-16T18:56:11.589Z,99.90
2017-11-16T18:58:40.852Z,99.90
2017-11-16T19:01:10.778Z,99.90
2017-11-16T19:03:40.921Z,99.90
2017-11-16T19:06:10.190Z,99.90
2017-11-16T19:08:39.604Z,99.90
2017-11-16T19:11:08.864Z,99.90
2017-11-16T19:13:38.192Z,99.90
2017-11-16T19:16:07.516Z,99.90
2017-11-16T19:18:37.540Z,99.90
2017-11-16T19:21:07.155Z,99.90
2017-11-16T19:23:36.758Z,99.90
2017-11-16T19:26:06.826Z,99.90
2017-11-16T19:28:36.264Z,99.90
2017-11-16T19:31:06.315Z,99.90
2017-11-16T19:33:35.584Z,99.90
2017-11-16T19:36:04.852Z,99.80
2017-11-16T19:38:34.129Z,99.90
2017-11-16T19:41:03.378Z,99.90
2017-11-16T19:43:33.526Z,99.90
2017-11-16T19:46:03.013Z,99.90
2017-11-16T19:48:33.051Z,99.90
2017-11-16T19:51:02.487Z,99.90
2017-11-16T19:53:31.749Z,99.90
2017-11-16T19:56:01.000Z,99.90
2017-11-16T19:58:30.342Z,99.90
2017-11-16T20:01:00.377Z,99.90
2017-11-16T20:03:29.641Z,99.90
2017-11-16T20:06:00.412Z,99.90
2017-11-16T20:08:29.663Z,99.90
2017-11-16T20:10:58.944Z,99.90
2017-11-16T20:13:28.191Z,99.90
2017-11-16T20:15:57.475Z,99.90
2017-11-16T20:18:26.758Z,99.90
2017-11-16T20:20:56.347Z,99.90
2017-11-16T20:23:25.741Z,99.90
2017-11-16T20:25:54.993Z,99.90
2017-11-16T20:28:24.412Z,99.90
2017-11-16T20:30:54.433Z,99.80
2017-11-16T20:33:23.680Z,99.80
2017-11-16T20:35:52.961Z,99.90
2017-11-16T20:38:23.615Z,99.90
2017-11-16T20:41:11.637Z,99.90
2017-11-16T20:47:03.960Z,99.90
2017-11-16T20:52:50.589Z,99.90
2017-11-16T20:55:19.913Z,99.90
2017-11-16T20:57:49.322Z,99.90
2017-11-16T21:00:18.590Z,99.90
2017-11-16T21:02:48.626Z,99.90
2017-11-16T21:05:18.653Z,99.90
2017-11-16T21:07:47.942Z,99.90
2017-11-16T21:10:17.235Z,99.90
2017-11-16T21:12:46.642Z,99.90
2017-11-16T21:15:16.678Z,99.90
2017-11-16T21:17:45.930Z,99.90
2017-11-16T21:20:15.388Z,99.90
2017-11-16T21:22:44.635Z,99.90
2017-11-16T21:25:14.060Z,99.90
2017-11-16T21:27:44.863Z,99.90
2017-11-16T21:30:14.114Z,99.90
2017-11-16T21:32:43.386Z,99.90
2017-11-16T21:35:12.654Z,99.90
2017-11-16T21:37:41.963Z,99.90
2017-11-16T21:40:11.446Z,99.90
2017-11-16T21:42:41.458Z,99.90
2017-11-16T21:45:10.928Z,99.90
2017-11-16T21:47:40.189Z,99.90
2017-11-16T21:50:09.547Z,99.90
2017-11-16T21:52:38.961Z,99.90
2017-11-16T21:55:09.100Z,99.90
2017-11-16T21:57:38.576Z,99.90
2017-11-16T22:00:08.691Z,99.90
2017-11-16T22:02:37.970Z,99.90
2017-11-16T22:05:07.235Z,99.90
2017-11-16T22:07:36.605Z,99.90
2017-11-16T22:10:06.714Z,99.90
2017-11-16T22:12:36.809Z,99.90
2017-11-16T22:15:06.232Z,99.70
2017-11-16T22:17:35.483Z,99.90
2017-11-16T22:20:04.955Z,99.90
2017-11-16T22:22:34.966Z,99.90
2017-11-16T22:25:04.217Z,99.90
2017-11-16T22:27:33.478Z,99.90
2017-11-16T22:30:03.600Z,99.80
2017-11-16T22:32:33.710Z,99.90
2017-11-16T22:35:03.755Z,99.90
2017-11-16T22:37:32.987Z,99.90
2017-11-16T22:40:02.259Z,99.90
2017-11-16T22:42:31.519Z,99.90
2017-11-16T22:45:00.783Z,99.90
2017-11-16T22:47:30.038Z,99.90
2017-11-16T22:49:59.306Z,99.90
2017-11-16T22:52:28.731Z,99.90
2017-11-16T22:54:58.002Z,99.90
2017-11-16T22:57:27.276Z,99.90
2017-11-16T22:59:56.546Z,99.90
2017-11-16T23:02:25.839Z,99.70
2017-11-16T23:04:55.882Z,99.90
2017-11-16T23:07:25.376Z,99.90
2017-11-16T23:09:55.499Z,99.90
2017-11-16T23:12:26.344Z,99.90
2017-11-16T23:14:55.663Z,99.90
2017-11-16T23:17:24.916Z,99.90
2017-11-16T23:19:55.004Z,99.90
2017-11-16T23:22:24.299Z,99.90
2017-11-16T23:24:54.188Z,99.90
2017-11-16T23:27:23.490Z,99.90
2017-11-16T23:29:52.978Z,99.90
2017-11-16T23:32:23.081Z,99.90
2017-11-16T23:34:53.124Z,99.90
2017-11-16T23:37:22.371Z,99.80
2017-11-16T23:39:51.890Z,99.60
2017-11-16T23:42:21.323Z,99.70
2017-11-16T23:44:51.361Z,99.80
2017-11-16T23:47:20.618Z,99.80
2017-11-16T23:49:49.859Z,99.90
2017-11-16T23:52:19.147Z,99.90
2017-11-16T23:54:49.177Z,99.90
2017-11-16T23:57:18.556Z,99.90
2017-11-16T23:59:48.674Z,99.90
